sensor_id;sensor_type;location;lat;lon;timestamp;temperature;humidity
76203;DHT22;64985;46.364;17.008;2024-01-07T00:01:52;5.30;99.90
76203;DHT22;64985;46.364;17.008;2024-01-07T00:04:55;5.20;99.90
76203;DHT22;64985;46.364;17.008;2024-01-07T00:07:57;5.20;99.90
76203;DHT22;64985;46.364;17.008;2024-01-07T00:11:00;5.20;99.90
76203;DHT22;64985;46.364;17.008;2024-01-07T00:14:02;5.20;99.90
76203;DHT22;64985;46.364;17.008;2024-01-07T00:17:04;5.20;99.90
76203;DHT22;64985;46.364;17.008;2024-01-07T00:20:07;5.20;99.90
76203;DHT22;64985;46.364;17.008;2024-01-07T00:23:10;5.20;99.90
76203;DHT22;64985;46.364;17.008;2024-01-07T00:26:12;5.20;99.90
76203;DHT22;64985;46.364;17.008;2024-01-07T00:29:14;5.10;99.90
76203;DHT22;64985;46.364;17.008;2024-01-07T00:32:17;5.10;99.90
76203;DHT22;64985;46.364;17.008;2024-01-07T00:35:19;5.10;99.90
76203;DHT22;64985;46.364;17.008;2024-01-07T00:38:21;5.10;99.90
76203;DHT22;64985;46.364;17.008;2024-01-07T00:41:24;5.10;99.90
76203;DHT22;64985;46.364;17.008;2024-01-07T00:44:26;5.10;99.90
76203;DHT22;64985;46.364;17.008;2024-01-07T00:47:28;5.10;99.90
76203;DHT22;64985;46.364;17.008;2024-01-07T00:50:31;5.10;99.90
76203;DHT22;64985;46.364;17.008;2024-01-07T00:53:33;5.10;99.90
76203;DHT22;64985;46.364;17.008;2024-01-07T00:56:35;5.00;99.90
76203;DHT22;64985;46.364;17.008;2024-01-07T00:59:38;5.10;99.90
76203;DHT22;64985;46.364;17.008;2024-01-07T01:02:40;5.10;99.90
76203;DHT22;64985;46.364;17.008;2024-01-07T01:05:42;5.00;99.90
76203;DHT22;64985;46.364;17.008;2024-01-07T01:08:45;5.00;99.90
76203;DHT22;64985;46.364;17.008;2024-01-07T01:11:47;5.00;99.90
76203;DHT22;64985;46.364;17.008;2024-01-07T01:14:49;5.00;99.90
76203;DHT22;64985;46.364;17.008;2024-01-07T01:17:53;5.00;99.90
76203;DHT22;64985;46.364;17.008;2024-01-07T01:20:56;5.00;99.90
76203;DHT22;64985;46.364;17.008;2024-01-07T01:23:58;5.00;99.90
76203;DHT22;64985;46.364;17.008;2024-01-07T01:27:00;4.90;99.90
76203;DHT22;64985;46.364;17.008;2024-01-07T01:30:03;4.90;99.90
76203;DHT22;64985;46.364;17.008;2024-01-07T01:33:07;4.90;99.90
76203;DHT22;64985;46.364;17.008;2024-01-07T01:36:10;4.90;99.90
76203;DHT22;64985;46.364;17.008;2024-01-07T01:39:12;4.90;99.90
76203;DHT22;64985;46.364;17.008;2024-01-07T01:42:14;4.90;99.90
76203;DHT22;64985;46.364;17.008;2024-01-07T01:45:17;4.90;99.90
76203;DHT22;64985;46.364;17.008;2024-01-07T01:48:22;4.90;99.90
76203;DHT22;64985;46.364;17.008;2024-01-07T01:51:25;4.90;99.90
76203;DHT22;64985;46.364;17.008;2024-01-07T01:54:28;4.80;99.90
76203;DHT22;64985;46.364;17.008;2024-01-07T01:57:34;4.80;99.90
76203;DHT22;64985;46.364;17.008;2024-01-07T02:00:40;4.80;99.90
76203;DHT22;64985;46.364;17.008;2024-01-07T02:03:42;4.80;99.90
76203;DHT22;64985;46.364;17.008;2024-01-07T02:06:45;4.80;99.90
76203;DHT22;64985;46.364;17.008;2024-01-07T02:09:47;4.80;99.90
76203;DHT22;64985;46.364;17.008;2024-01-07T02:12:50;4.70;99.90
76203;DHT22;64985;46.364;17.008;2024-01-07T02:15:52;4.80;99.90
76203;DHT22;64985;46.364;17.008;2024-01-07T02:18:54;4.80;99.90
76203;DHT22;64985;46.364;17.008;2024-01-07T02:21:57;4.70;99.90
76203;DHT22;64985;46.364;17.008;2024-01-07T02:24:59;4.70;99.90
76203;DHT22;64985;46.364;17.008;2024-01-07T02:28:02;4.70;99.90
76203;DHT22;64985;46.364;17.008;2024-01-07T02:31:04;4.70;99.90
76203;DHT22;64985;46.364;17.008;2024-01-07T02:34:09;4.70;99.90
76203;DHT22;64985;46.364;17.008;2024-01-07T02:37:12;4.60;99.90
76203;DHT22;64985;46.364;17.008;2024-01-07T02:40:15;4.60;99.90
76203;DHT22;64985;46.364;17.008;2024-01-07T02:43:17;4.50;99.90
76203;DHT22;64985;46.364;17.008;2024-01-07T02:46:20;4.60;99.90
76203;DHT22;64985;46.364;17.008;2024-01-07T02:49:22;4.50;99.90
76203;DHT22;64985;46.364;17.008;2024-01-07T02:52:25;4.50;99.90
76203;DHT22;64985;46.364;17.008;2024-01-07T02:55:27;4.50;99.90
76203;DHT22;64985;46.364;17.008;2024-01-07T02:58:29;4.50;99.90
76203;DHT22;64985;46.364;17.008;2024-01-07T03:01:31;4.50;99.90
76203;DHT22;64985;46.364;17.008;2024-01-07T03:04:34;4.40;99.90
76203;DHT22;64985;46.364;17.008;2024-01-07T03:07:37;4.40;99.90
76203;DHT22;64985;46.364;17.008;2024-01-07T03:10:40;4.40;99.90
76203;DHT22;64985;46.364;17.008;2024-01-07T03:13:42;4.40;99.90
76203;DHT22;64985;46.364;17.008;2024-01-07T03:16:45;4.40;99.90
76203;DHT22;64985;46.364;17.008;2024-01-07T03:19:47;4.30;99.90
76203;DHT22;64985;46.364;17.008;2024-01-07T03:22:49;4.30;99.90
76203;DHT22;64985;46.364;17.008;2024-01-07T03:25:52;4.30;99.90
76203;DHT22;64985;46.364;17.008;2024-01-07T03:28:54;4.30;99.90
76203;DHT22;64985;46.364;17.008;2024-01-07T03:31:56;4.20;99.90
76203;DHT22;64985;46.364;17.008;2024-01-07T03:34:59;4.20;99.90
76203;DHT22;64985;46.364;17.008;2024-01-07T03:38:01;4.20;99.90
76203;DHT22;64985;46.364;17.008;2024-01-07T03:41:03;4.10;99.90
76203;DHT22;64985;46.364;17.008;2024-01-07T03:44:06;4.10;99.90
76203;DHT22;64985;46.364;17.008;2024-01-07T03:47:08;4.10;99.90
76203;DHT22;64985;46.364;17.008;2024-01-07T03:50:10;4.10;99.90
76203;DHT22;64985;46.364;17.008;2024-01-07T03:53:13;4.00;99.90
76203;DHT22;64985;46.364;17.008;2024-01-07T03:56:15;4.00;99.90
76203;DHT22;64985;46.364;17.008;2024-01-07T03:59:17;4.00;99.90
76203;DHT22;64985;46.364;17.008;2024-01-07T04:02:19;4.00;99.90
76203;DHT22;64985;46.364;17.008;2024-01-07T04:05:21;3.90;99.90
76203;DHT22;64985;46.364;17.008;2024-01-07T04:08:24;4.00;99.90
76203;DHT22;64985;46.364;17.008;2024-01-07T04:11:26;3.90;99.90
76203;DHT22;64985;46.364;17.008;2024-01-07T04:14:28;3.90;99.90
76203;DHT22;64985;46.364;17.008;2024-01-07T04:17:31;3.90;99.90
76203;DHT22;64985;46.364;17.008;2024-01-07T04:20:33;3.90;99.90
76203;DHT22;64985;46.364;17.008;2024-01-07T04:23:36;3.80;99.90
76203;DHT22;64985;46.364;17.008;2024-01-07T04:26:38;3.80;99.90
76203;DHT22;64985;46.364;17.008;2024-01-07T04:29:40;3.80;99.90
76203;DHT22;64985;46.364;17.008;2024-01-07T04:32:42;3.70;99.90
76203;DHT22;64985;46.364;17.008;2024-01-07T04:35:44;3.80;99.90
76203;DHT22;64985;46.364;17.008;2024-01-07T04:38:46;3.70;99.90
76203;DHT22;64985;46.364;17.008;2024-01-07T04:41:49;3.70;99.90
76203;DHT22;64985;46.364;17.008;2024-01-07T04:44:51;3.70;99.90
76203;DHT22;64985;46.364;17.008;2024-01-07T04:47:53;3.60;99.90
76203;DHT22;64985;46.364;17.008;2024-01-07T04:50:55;3.60;99.90
76203;DHT22;64985;46.364;17.008;2024-01-07T04:53:58;3.60;99.90
76203;DHT22;64985;46.364;17.008;2024-01-07T04:57:00;3.60;99.90
76203;DHT22;64985;46.364;17.008;2024-01-07T05:00:02;3.50;99.90
76203;DHT22;64985;46.364;17.008;2024-01-07T05:03:05;3.50;99.90
76203;DHT22;64985;46.364;17.008;2024-01-07T05:06:11;3.50;99.90
76203;DHT22;64985;46.364;17.008;2024-01-07T05:09:13;3.50;99.90
76203;DHT22;64985;46.364;17.008;2024-01-07T05:12:15;3.40;99.90
76203;DHT22;64985;46.364;17.008;2024-01-07T05:15:18;3.40;99.90
76203;DHT22;64985;46.364;17.008;2024-01-07T05:18:23;3.40;99.90
76203;DHT22;64985;46.364;17.008;2024-01-07T05:21:26;3.40;99.90
76203;DHT22;64985;46.364;17.008;2024-01-07T05:24:28;3.40;99.90
76203;DHT22;64985;46.364;17.008;2024-01-07T05:27:33;3.40;99.90
76203;DHT22;64985;46.364;17.008;2024-01-07T05:30:36;3.30;99.90
76203;DHT22;64985;46.364;17.008;2024-01-07T05:33:38;3.30;99.90
76203;DHT22;64985;46.364;17.008;2024-01-07T05:36:41;3.30;99.90
76203;DHT22;64985;46.364;17.008;2024-01-07T05:39:43;3.30;99.90
76203;DHT22;64985;46.364;17.008;2024-01-07T05:42:46;3.30;99.90
76203;DHT22;64985;46.364;17.008;2024-01-07T05:45:48;3.30;99.90
76203;DHT22;64985;46.364;17.008;2024-01-07T05:48:51;3.30;99.90
76203;DHT22;64985;46.364;17.008;2024-01-07T05:51:53;3.20;99.90
76203;DHT22;64985;46.364;17.008;2024-01-07T05:54:56;3.30;99.90
76203;DHT22;64985;46.364;17.008;2024-01-07T05:57:58;3.20;99.90
76203;DHT22;64985;46.364;17.008;2024-01-07T06:01:01;3.20;99.90
76203;DHT22;64985;46.364;17.008;2024-01-07T06:04:03;3.20;99.90
76203;DHT22;64985;46.364;17.008;2024-01-07T06:07:06;3.20;99.90
76203;DHT22;64985;46.364;17.008;2024-01-07T06:10:08;3.20;99.90
76203;DHT22;64985;46.364;17.008;2024-01-07T06:13:11;3.20;99.90
76203;DHT22;64985;46.364;17.008;2024-01-07T06:16:13;3.10;99.90
76203;DHT22;64985;46.364;17.008;2024-01-07T06:19:16;3.10;99.90
76203;DHT22;64985;46.364;17.008;2024-01-07T06:22:19;3.10;99.90
76203;DHT22;64985;46.364;17.008;2024-01-07T06:25:21;3.10;99.90
76203;DHT22;64985;46.364;17.008;2024-01-07T06:28:25;3.10;99.90
76203;DHT22;64985;46.364;17.008;2024-01-07T06:31:27;3.00;99.90
76203;DHT22;64985;46.364;17.008;2024-01-07T06:34:30;3.00;99.90
76203;DHT22;64985;46.364;17.008;2024-01-07T06:37:32;2.90;99.90
76203;DHT22;64985;46.364;17.008;2024-01-07T06:40:36;2.90;99.90
76203;DHT22;64985;46.364;17.008;2024-01-07T06:43:39;2.90;99.90
76203;DHT22;64985;46.364;17.008;2024-01-07T06:46:41;2.90;99.90
76203;DHT22;64985;46.364;17.008;2024-01-07T06:49:43;2.80;99.90
76203;DHT22;64985;46.364;17.008;2024-01-07T06:52:46;2.80;99.90
76203;DHT22;64985;46.364;17.008;2024-01-07T06:55:48;2.80;99.90
76203;DHT22;64985;46.364;17.008;2024-01-07T06:58:50;2.70;99.90
76203;DHT22;64985;46.364;17.008;2024-01-07T07:01:53;2.80;99.90
76203;DHT22;64985;46.364;17.008;2024-01-07T07:04:57;2.70;99.90
76203;DHT22;64985;46.364;17.008;2024-01-07T07:08:01;2.80;99.90
76203;DHT22;64985;46.364;17.008;2024-01-07T07:11:03;2.80;99.90
76203;DHT22;64985;46.364;17.008;2024-01-07T07:14:05;2.70;99.90
76203;DHT22;64985;46.364;17.008;2024-01-07T07:17:08;2.70;99.90
76203;DHT22;64985;46.364;17.008;2024-01-07T07:20:11;2.70;99.90
76203;DHT22;64985;46.364;17.008;2024-01-07T07:23:13;2.70;99.90
76203;DHT22;64985;46.364;17.008;2024-01-07T07:26:15;2.70;99.90
76203;DHT22;64985;46.364;17.008;2024-01-07T07:29:18;2.70;99.90
76203;DHT22;64985;46.364;17.008;2024-01-07T07:32:20;2.70;99.90
76203;DHT22;64985;46.364;17.008;2024-01-07T07:35:22;2.60;99.90
76203;DHT22;64985;46.364;17.008;2024-01-07T07:38:24;2.60;99.90
76203;DHT22;64985;46.364;17.008;2024-01-07T07:41:27;2.60;99.90
76203;DHT22;64985;46.364;17.008;2024-01-07T07:44:30;2.60;99.90
76203;DHT22;64985;46.364;17.008;2024-01-07T07:47:32;2.60;99.90
76203;DHT22;64985;46.364;17.008;2024-01-07T07:50:35;2.60;99.90
76203;DHT22;64985;46.364;17.008;2024-01-07T07:53:40;2.50;99.90
76203;DHT22;64985;46.364;17.008;2024-01-07T07:56:42;2.50;99.90
76203;DHT22;64985;46.364;17.008;2024-01-07T07:59:45;2.50;99.90
76203;DHT22;64985;46.364;17.008;2024-01-07T08:02:47;2.50;99.90
76203;DHT22;64985;46.364;17.008;2024-01-07T08:05:49;2.50;99.90
76203;DHT22;64985;46.364;17.008;2024-01-07T08:08:52;2.50;99.90
76203;DHT22;64985;46.364;17.008;2024-01-07T08:11:54;2.50;99.90
76203;DHT22;64985;46.364;17.008;2024-01-07T08:14:56;2.50;99.90
76203;DHT22;64985;46.364;17.008;2024-01-07T08:17:58;2.40;99.90
76203;DHT22;64985;46.364;17.008;2024-01-07T08:21:00;2.40;99.90
76203;DHT22;64985;46.364;17.008;2024-01-07T08:24:03;2.50;99.90
76203;DHT22;64985;46.364;17.008;2024-01-07T08:27:06;2.40;99.90
76203;DHT22;64985;46.364;17.008;2024-01-07T08:30:08;2.40;99.90
76203;DHT22;64985;46.364;17.008;2024-01-07T08:33:10;2.40;99.90
76203;DHT22;64985;46.364;17.008;2024-01-07T08:36:13;2.40;99.90
76203;DHT22;64985;46.364;17.008;2024-01-07T08:39:15;2.30;99.90
76203;DHT22;64985;46.364;17.008;2024-01-07T08:42:18;2.40;99.90
76203;DHT22;64985;46.364;17.008;2024-01-07T08:45:21;2.40;99.90
76203;DHT22;64985;46.364;17.008;2024-01-07T08:48:24;2.40;99.90
76203;DHT22;64985;46.364;17.008;2024-01-07T08:51:26;2.30;99.90
76203;DHT22;64985;46.364;17.008;2024-01-07T08:54:28;2.30;99.90
76203;DHT22;64985;46.364;17.008;2024-01-07T08:57:32;2.30;99.90
76203;DHT22;64985;46.364;17.008;2024-01-07T09:00:34;2.30;99.90
76203;DHT22;64985;46.364;17.008;2024-01-07T09:03:36;2.30;99.90
76203;DHT22;64985;46.364;17.008;2024-01-07T09:06:38;2.30;99.90
76203;DHT22;64985;46.364;17.008;2024-01-07T09:09:41;2.30;99.90
76203;DHT22;64985;46.364;17.008;2024-01-07T09:12:43;2.30;99.90
76203;DHT22;64985;46.364;17.008;2024-01-07T09:15:45;2.30;99.90
76203;DHT22;64985;46.364;17.008;2024-01-07T09:18:48;2.30;99.90
76203;DHT22;64985;46.364;17.008;2024-01-07T09:21:50;2.30;99.90
76203;DHT22;64985;46.364;17.008;2024-01-07T09:24:52;2.20;99.90
76203;DHT22;64985;46.364;17.008;2024-01-07T09:27:55;2.30;99.90
76203;DHT22;64985;46.364;17.008;2024-01-07T09:30:57;2.30;99.90
76203;DHT22;64985;46.364;17.008;2024-01-07T09:33:59;2.20;99.90
76203;DHT22;64985;46.364;17.008;2024-01-07T09:37:04;2.20;99.90
76203;DHT22;64985;46.364;17.008;2024-01-07T09:40:07;2.20;99.90
76203;DHT22;64985;46.364;17.008;2024-01-07T09:43:10;2.20;99.90
76203;DHT22;64985;46.364;17.008;2024-01-07T09:46:13;2.10;99.90
76203;DHT22;64985;46.364;17.008;2024-01-07T09:49:15;2.10;99.90
76203;DHT22;64985;46.364;17.008;2024-01-07T09:52:20;2.10;99.90
76203;DHT22;64985;46.364;17.008;2024-01-07T09:55:27;2.10;99.90
76203;DHT22;64985;46.364;17.008;2024-01-07T09:58:33;2.00;99.90
76203;DHT22;64985;46.364;17.008;2024-01-07T10:01:35;2.00;99.90
76203;DHT22;64985;46.364;17.008;2024-01-07T10:04:40;2.00;99.90
76203;DHT22;64985;46.364;17.008;2024-01-07T10:07:43;2.00;99.90
76203;DHT22;64985;46.364;17.008;2024-01-07T10:10:45;2.00;99.90
76203;DHT22;64985;46.364;17.008;2024-01-07T10:13:47;2.00;99.90
76203;DHT22;64985;46.364;17.008;2024-01-07T10:16:50;2.00;99.90
76203;DHT22;64985;46.364;17.008;2024-01-07T10:19:52;2.00;99.90
76203;DHT22;64985;46.364;17.008;2024-01-07T10:22:55;2.00;99.90
76203;DHT22;64985;46.364;17.008;2024-01-07T10:25:58;2.00;99.90
76203;DHT22;64985;46.364;17.008;2024-01-07T10:29:07;2.00;99.90
76203;DHT22;64985;46.364;17.008;2024-01-07T10:32:12;2.00;99.90
76203;DHT22;64985;46.364;17.008;2024-01-07T10:35:18;2.00;99.90
76203;DHT22;64985;46.364;17.008;2024-01-07T10:38:23;2.00;99.90
76203;DHT22;64985;46.364;17.008;2024-01-07T10:41:26;2.00;99.90
76203;DHT22;64985;46.364;17.008;2024-01-07T10:44:32;2.00;99.90
76203;DHT22;64985;46.364;17.008;2024-01-07T10:47:36;1.90;99.90
76203;DHT22;64985;46.364;17.008;2024-01-07T10:50:38;1.90;99.90
76203;DHT22;64985;46.364;17.008;2024-01-07T10:53:43;1.90;99.90
76203;DHT22;64985;46.364;17.008;2024-01-07T10:56:50;1.90;99.90
76203;DHT22;64985;46.364;17.008;2024-01-07T10:59:56;1.90;99.90
76203;DHT22;64985;46.364;17.008;2024-01-07T11:06:09;1.90;99.90
76203;DHT22;64985;46.364;17.008;2024-01-07T11:12:35;1.80;99.90
76203;DHT22;64985;46.364;17.008;2024-01-07T11:18:54;1.60;99.90
76203;DHT22;64985;46.364;17.008;2024-01-07T11:22:22;1.60;99.90
76203;DHT22;64985;46.364;17.008;2024-01-07T11:25:32;1.60;99.90
76203;DHT22;64985;46.364;17.008;2024-01-07T11:29:01;1.70;99.90
76203;DHT22;64985;46.364;17.008;2024-01-07T11:32:05;1.70;99.90
76203;DHT22;64985;46.364;17.008;2024-01-07T11:35:08;1.60;99.90
76203;DHT22;64985;46.364;17.008;2024-01-07T11:38:10;1.60;99.90
76203;DHT22;64985;46.364;17.008;2024-01-07T11:41:14;1.60;99.90
76203;DHT22;64985;46.364;17.008;2024-01-07T11:44:16;1.60;99.90
76203;DHT22;64985;46.364;17.008;2024-01-07T11:47:20;1.60;99.90
76203;DHT22;64985;46.364;17.008;2024-01-07T11:50:23;1.60;99.90
76203;DHT22;64985;46.364;17.008;2024-01-07T11:53:25;1.60;99.90
76203;DHT22;64985;46.364;17.008;2024-01-07T11:56:28;1.60;99.90
76203;DHT22;64985;46.364;17.008;2024-01-07T11:59:30;1.60;99.90
76203;DHT22;64985;46.364;17.008;2024-01-07T12:02:33;1.50;99.90
76203;DHT22;64985;46.364;17.008;2024-01-07T12:05:35;1.50;99.90
76203;DHT22;64985;46.364;17.008;2024-01-07T12:08:37;1.50;99.90
76203;DHT22;64985;46.364;17.008;2024-01-07T12:11:40;1.40;99.90
76203;DHT22;64985;46.364;17.008;2024-01-07T12:14:46;1.50;99.90
76203;DHT22;64985;46.364;17.008;2024-01-07T12:17:56;1.50;99.90
76203;DHT22;64985;46.364;17.008;2024-01-07T12:21:00;1.40;99.90
76203;DHT22;64985;46.364;17.008;2024-01-07T12:24:03;1.40;99.90
76203;DHT22;64985;46.364;17.008;2024-01-07T12:27:06;1.40;99.90
76203;DHT22;64985;46.364;17.008;2024-01-07T12:30:08;1.40;99.90
76203;DHT22;64985;46.364;17.008;2024-01-07T12:33:11;1.40;99.90
76203;DHT22;64985;46.364;17.008;2024-01-07T12:36:14;1.30;99.90
76203;DHT22;64985;46.364;17.008;2024-01-07T12:39:16;1.30;99.90
76203;DHT22;64985;46.364;17.008;2024-01-07T12:42:20;1.30;99.90
76203;DHT22;64985;46.364;17.008;2024-01-07T12:45:23;1.30;99.90
76203;DHT22;64985;46.364;17.008;2024-01-07T12:48:25;1.30;99.90
76203;DHT22;64985;46.364;17.008;2024-01-07T12:51:27;1.20;99.90
76203;DHT22;64985;46.364;17.008;2024-01-07T12:54:30;1.30;99.90
76203;DHT22;64985;46.364;17.008;2024-01-07T12:57:32;1.20;99.90
76203;DHT22;64985;46.364;17.008;2024-01-07T13:00:35;1.20;99.90
76203;DHT22;64985;46.364;17.008;2024-01-07T13:03:37;1.20;99.90
76203;DHT22;64985;46.364;17.008;2024-01-07T13:06:40;1.20;99.90
76203;DHT22;64985;46.364;17.008;2024-01-07T13:09:42;1.10;99.90
76203;DHT22;64985;46.364;17.008;2024-01-07T13:12:46;1.10;99.90
76203;DHT22;64985;46.364;17.008;2024-01-07T13:15:54;1.10;99.90
76203;DHT22;64985;46.364;17.008;2024-01-07T13:18:59;1.00;99.90
76203;DHT22;64985;46.364;17.008;2024-01-07T13:22:01;1.10;99.90
76203;DHT22;64985;46.364;17.008;2024-01-07T13:25:07;1.10;99.90
76203;DHT22;64985;46.364;17.008;2024-01-07T13:28:10;1.10;99.90
76203;DHT22;64985;46.364;17.008;2024-01-07T13:31:13;1.00;99.90
76203;DHT22;64985;46.364;17.008;2024-01-07T13:34:16;1.00;99.90
76203;DHT22;64985;46.364;17.008;2024-01-07T13:37:20;1.00;99.90
76203;DHT22;64985;46.364;17.008;2024-01-07T13:40:22;1.00;99.90
76203;DHT22;64985;46.364;17.008;2024-01-07T13:43:24;1.00;99.90
76203;DHT22;64985;46.364;17.008;2024-01-07T13:46:27;0.90;99.90
76203;DHT22;64985;46.364;17.008;2024-01-07T13:49:32;1.00;99.90
76203;DHT22;64985;46.364;17.008;2024-01-07T13:52:35;1.00;99.90
76203;DHT22;64985;46.364;17.008;2024-01-07T13:55:37;0.90;99.90
76203;DHT22;64985;46.364;17.008;2024-01-07T13:58:39;0.90;99.90
76203;DHT22;64985;46.364;17.008;2024-01-07T14:01:43;0.90;99.90
76203;DHT22;64985;46.364;17.008;2024-01-07T14:04:46;0.90;99.90
76203;DHT22;64985;46.364;17.008;2024-01-07T14:07:48;0.80;99.90
76203;DHT22;64985;46.364;17.008;2024-01-07T14:10:51;0.80;99.90
76203;DHT22;64985;46.364;17.008;2024-01-07T14:13:53;0.80;99.90
76203;DHT22;64985;46.364;17.008;2024-01-07T14:16:55;0.80;99.90
76203;DHT22;64985;46.364;17.008;2024-01-07T14:19:57;0.80;99.90
76203;DHT22;64985;46.364;17.008;2024-01-07T14:22:59;0.80;99.90
76203;DHT22;64985;46.364;17.008;2024-01-07T14:26:02;0.80;99.90
76203;DHT22;64985;46.364;17.008;2024-01-07T14:29:05;0.70;99.90
76203;DHT22;64985;46.364;17.008;2024-01-07T14:32:18;0.70;99.90
76203;DHT22;64985;46.364;17.008;2024-01-07T14:35:20;0.70;99.90
76203;DHT22;64985;46.364;17.008;2024-01-07T14:38:23;0.70;99.90
76203;DHT22;64985;46.364;17.008;2024-01-07T14:41:27;0.70;99.90
76203;DHT22;64985;46.364;17.008;2024-01-07T14:44:30;0.70;99.90
76203;DHT22;64985;46.364;17.008;2024-01-07T14:59:18;0.60;99.90
76203;DHT22;64985;46.364;17.008;2024-01-07T15:02:21;0.60;99.90
76203;DHT22;64985;46.364;17.008;2024-01-07T15:05:23;0.60;99.90
76203;DHT22;64985;46.364;17.008;2024-01-07T15:08:26;0.60;99.90
76203;DHT22;64985;46.364;17.008;2024-01-07T15:11:28;0.60;99.90
76203;DHT22;64985;46.364;17.008;2024-01-07T15:14:30;0.50;99.90
76203;DHT22;64985;46.364;17.008;2024-01-07T15:17:32;0.50;99.90
76203;DHT22;64985;46.364;17.008;2024-01-07T15:20:35;0.50;99.90
76203;DHT22;64985;46.364;17.008;2024-01-07T15:23:37;0.50;99.90
76203;DHT22;64985;46.364;17.008;2024-01-07T15:26:39;0.50;99.90
76203;DHT22;64985;46.364;17.008;2024-01-07T15:29:42;0.50;99.90
76203;DHT22;64985;46.364;17.008;2024-01-07T15:32:44;0.50;99.90
76203;DHT22;64985;46.364;17.008;2024-01-07T15:35:46;0.50;99.90
76203;DHT22;64985;46.364;17.008;2024-01-07T15:38:49;0.50;99.90
76203;DHT22;64985;46.364;17.008;2024-01-07T15:41:51;0.50;99.90
76203;DHT22;64985;46.364;17.008;2024-01-07T15:44:57;0.50;99.90
76203;DHT22;64985;46.364;17.008;2024-01-07T15:47:59;0.50;99.90
76203;DHT22;64985;46.364;17.008;2024-01-07T15:51:01;0.50;99.90
76203;DHT22;64985;46.364;17.008;2024-01-07T15:54:05;0.50;99.90
76203;DHT22;64985;46.364;17.008;2024-01-07T15:57:08;0.50;99.90
76203;DHT22;64985;46.364;17.008;2024-01-07T16:00:11;0.50;99.90
76203;DHT22;64985;46.364;17.008;2024-01-07T16:03:14;0.50;99.90
76203;DHT22;64985;46.364;17.008;2024-01-07T16:06:16;0.50;99.90
76203;DHT22;64985;46.364;17.008;2024-01-07T16:09:18;0.50;99.90
76203;DHT22;64985;46.364;17.008;2024-01-07T16:12:21;0.50;99.90
76203;DHT22;64985;46.364;17.008;2024-01-07T16:15:23;0.50;99.90
76203;DHT22;64985;46.364;17.008;2024-01-07T16:18:25;0.50;99.90
76203;DHT22;64985;46.364;17.008;2024-01-07T16:21:28;0.50;99.90
76203;DHT22;64985;46.364;17.008;2024-01-07T16:24:30;0.50;99.90
76203;DHT22;64985;46.364;17.008;2024-01-07T16:27:41;0.50;99.90
76203;DHT22;64985;46.364;17.008;2024-01-07T16:30:44;0.50;99.90
76203;DHT22;64985;46.364;17.008;2024-01-07T16:33:46;0.50;99.90
76203;DHT22;64985;46.364;17.008;2024-01-07T16:36:48;0.50;99.90
76203;DHT22;64985;46.364;17.008;2024-01-07T16:39:51;0.50;99.90
76203;DHT22;64985;46.364;17.008;2024-01-07T16:42:53;0.50;99.90
76203;DHT22;64985;46.364;17.008;2024-01-07T16:45:56;0.50;99.90
76203;DHT22;64985;46.364;17.008;2024-01-07T16:48:59;0.50;99.90
76203;DHT22;64985;46.364;17.008;2024-01-07T16:52:21;0.60;99.90
76203;DHT22;64985;46.364;17.008;2024-01-07T16:55:24;0.50;99.90
76203;DHT22;64985;46.364;17.008;2024-01-07T16:58:26;0.50;99.90
76203;DHT22;64985;46.364;17.008;2024-01-07T17:01:29;0.50;99.90
76203;DHT22;64985;46.364;17.008;2024-01-07T17:04:31;0.50;99.90
76203;DHT22;64985;46.364;17.008;2024-01-07T17:07:33;0.60;99.90
76203;DHT22;64985;46.364;17.008;2024-01-07T17:10:36;0.50;99.90
76203;DHT22;64985;46.364;17.008;2024-01-07T17:13:38;0.50;99.90
76203;DHT22;64985;46.364;17.008;2024-01-07T17:16:41;0.50;99.90
76203;DHT22;64985;46.364;17.008;2024-01-07T17:19:43;0.50;99.90
76203;DHT22;64985;46.364;17.008;2024-01-07T17:22:46;0.50;99.90
76203;DHT22;64985;46.364;17.008;2024-01-07T17:25:49;0.50;99.90
76203;DHT22;64985;46.364;17.008;2024-01-07T17:28:51;0.50;99.90
76203;DHT22;64985;46.364;17.008;2024-01-07T17:31:54;0.60;99.90
76203;DHT22;64985;46.364;17.008;2024-01-07T17:34:56;0.60;99.90
76203;DHT22;64985;46.364;17.008;2024-01-07T17:37:59;0.60;99.90
76203;DHT22;64985;46.364;17.008;2024-01-07T17:41:01;0.50;99.90
76203;DHT22;64985;46.364;17.008;2024-01-07T17:44:04;0.50;99.90
76203;DHT22;64985;46.364;17.008;2024-01-07T17:47:08;0.50;99.90
76203;DHT22;64985;46.364;17.008;2024-01-07T17:50:10;0.50;99.90
76203;DHT22;64985;46.364;17.008;2024-01-07T17:53:14;0.50;99.90
76203;DHT22;64985;46.364;17.008;2024-01-07T17:56:20;0.50;99.90
76203;DHT22;64985;46.364;17.008;2024-01-07T17:59:23;0.50;99.90
76203;DHT22;64985;46.364;17.008;2024-01-07T18:02:26;0.50;99.90
76203;DHT22;64985;46.364;17.008;2024-01-07T18:05:28;0.50;99.90
76203;DHT22;64985;46.364;17.008;2024-01-07T18:08:31;0.50;99.90
76203;DHT22;64985;46.364;17.008;2024-01-07T18:11:43;0.50;99.90
76203;DHT22;64985;46.364;17.008;2024-01-07T18:14:46;0.50;99.90
76203;DHT22;64985;46.364;17.008;2024-01-07T18:17:48;0.50;99.90
76203;DHT22;64985;46.364;17.008;2024-01-07T18:20:50;0.50;99.90
76203;DHT22;64985;46.364;17.008;2024-01-07T18:23:53;0.50;99.90
76203;DHT22;64985;46.364;17.008;2024-01-07T18:26:55;0.50;99.90
76203;DHT22;64985;46.364;17.008;2024-01-07T18:29:59;0.50;99.90
76203;DHT22;64985;46.364;17.008;2024-01-07T18:33:03;0.50;99.90
76203;DHT22;64985;46.364;17.008;2024-01-07T18:36:08;0.50;99.90
76203;DHT22;64985;46.364;17.008;2024-01-07T18:39:11;0.50;99.90
76203;DHT22;64985;46.364;17.008;2024-01-07T18:42:14;0.50;99.90
76203;DHT22;64985;46.364;17.008;2024-01-07T18:45:16;0.40;99.90
76203;DHT22;64985;46.364;17.008;2024-01-07T18:48:19;0.40;99.90
76203;DHT22;64985;46.364;17.008;2024-01-07T18:51:22;0.40;99.90
76203;DHT22;64985;46.364;17.008;2024-01-07T18:54:25;0.40;99.90
76203;DHT22;64985;46.364;17.008;2024-01-07T18:57:28;0.40;99.90
76203;DHT22;64985;46.364;17.008;2024-01-07T19:00:31;0.30;99.90
76203;DHT22;64985;46.364;17.008;2024-01-07T19:03:33;0.30;99.90
76203;DHT22;64985;46.364;17.008;2024-01-07T19:06:36;0.30;99.90
76203;DHT22;64985;46.364;17.008;2024-01-07T19:09:40;0.40;99.90
76203;DHT22;64985;46.364;17.008;2024-01-07T19:12:43;0.30;99.90
76203;DHT22;64985;46.364;17.008;2024-01-07T19:15:45;0.30;99.90
76203;DHT22;64985;46.364;17.008;2024-01-07T19:18:47;0.30;99.90
76203;DHT22;64985;46.364;17.008;2024-01-07T19:21:50;0.30;99.90
76203;DHT22;64985;46.364;17.008;2024-01-07T19:24:53;0.30;99.90
76203;DHT22;64985;46.364;17.008;2024-01-07T19:27:56;0.30;99.90
76203;DHT22;64985;46.364;17.008;2024-01-07T19:31:01;0.30;99.90
76203;DHT22;64985;46.364;17.008;2024-01-07T19:34:03;0.30;99.90
76203;DHT22;64985;46.364;17.008;2024-01-07T19:37:06;0.30;99.90